sensor_id;sensor_type;location;lat;lon;timestamp;pressure;altitude;pressure_sealevel;temperature;humidity
49178;BME280;35016;55.674;37.468;2023-09-19T00:00:49;99577.84;;;12.77;75.96
49178;BME280;35016;55.674;37.468;2023-09-19T00:03:17;99575.66;;;12.74;76.09
49178;BME280;35016;55.674;37.468;2023-09-19T00:05:44;99585.19;;;12.76;76.29
49178;BME280;35016;55.674;37.468;2023-09-19T00:08:13;99588.72;;;12.77;76.18
49178;BME280;35016;55.674;37.468;2023-09-19T00:10:42;99578.38;;;12.79;76.40
49178;BME280;35016;55.674;37.468;2023-09-19T00:13:10;99587.09;;;12.86;76.38
49178;BME280;35016;55.674;37.468;2023-09-19T00:15:44;99580.28;;;12.93;76.41
49178;BME280;35016;55.674;37.468;2023-09-19T00:18:19;99577.56;;;12.98;76.14
49178;BME280;35016;55.674;37.468;2023-09-19T00:20:48;99577.03;;;13.01;75.89
49178;BME280;35016;55.674;37.468;2023-09-19T00:23:16;99580.28;;;13.03;75.58
49178;BME280;35016;55.674;37.468;2023-09-19T00:25:44;99574.03;;;13.03;75.67
49178;BME280;35016;55.674;37.468;2023-09-19T00:28:12;99574.31;;;13.01;75.46
49178;BME280;35016;55.674;37.468;2023-09-19T00:30:42;99570.47;;;12.97;75.66
49178;BME280;35016;55.674;37.468;2023-09-19T00:33:11;99576.75;;;12.93;75.91
49178;BME280;35016;55.674;37.468;2023-09-19T00:38:14;99586.28;;;12.90;76.04
49178;BME280;35016;55.674;37.468;2023-09-19T00:40:48;99582.47;;;12.91;75.88
49178;BME280;35016;55.674;37.468;2023-09-19T00:43:16;99583.28;;;12.92;75.88
49178;BME280;35016;55.674;37.468;2023-09-19T00:45:46;99585.72;;;12.93;76.09
49178;BME280;35016;55.674;37.468;2023-09-19T00:48:15;99582.47;;;12.91;76.17
49178;BME280;35016;55.674;37.468;2023-09-19T00:50:46;99584.91;;;12.88;76.33
49178;BME280;35016;55.674;37.468;2023-09-19T00:53:20;99575.38;;;12.90;76.33
49178;BME280;35016;55.674;37.468;2023-09-19T00:59:53;99573.75;;;12.89;76.07
49178;BME280;35016;55.674;37.468;2023-09-19T01:02:22;99577.28;;;12.90;75.75
49178;BME280;35016;55.674;37.468;2023-09-19T01:04:49;99579.47;;;12.88;75.84
49178;BME280;35016;55.674;37.468;2023-09-19T01:07:17;99582.75;;;12.85;76.12
49178;BME280;35016;55.674;37.468;2023-09-19T01:09:45;99574.59;;;12.80;75.97
49178;BME280;35016;55.674;37.468;2023-09-19T01:12:16;99575.13;;;12.77;76.39
49178;BME280;35016;55.674;37.468;2023-09-19T01:14:56;99578.63;;;12.72;76.63
49178;BME280;35016;55.674;37.468;2023-09-19T01:17:34;99568.84;;;12.66;76.14
49178;BME280;35016;55.674;37.468;2023-09-19T01:31:21;99575.59;;;12.38;76.70
49178;BME280;35016;55.674;37.468;2023-09-19T01:36:32;99570.72;;;12.35;76.67
49178;BME280;35016;55.674;37.468;2023-09-19T01:39:08;99568.25;;;12.33;77.10
49178;BME280;35016;55.674;37.468;2023-09-19T01:47:31;99565.25;;;12.20;77.31
49178;BME280;35016;55.674;37.468;2023-09-19T01:52:31;99553.25;;;12.10;76.89
49178;BME280;35016;55.674;37.468;2023-09-19T01:55:09;99551.59;;;12.04;77.33
49178;BME280;35016;55.674;37.468;2023-09-19T01:58:07;99549.69;;;12.00;77.59
49178;BME280;35016;55.674;37.468;2023-09-19T02:00:37;99547.50;;;11.92;77.58
49178;BME280;35016;55.674;37.468;2023-09-19T02:03:05;99537.72;;;11.86;77.67
49178;BME280;35016;55.674;37.468;2023-09-19T02:05:32;99540.13;;;11.82;77.49
49178;BME280;35016;55.674;37.468;2023-09-19T02:08:00;99541.72;;;11.78;77.49
49178;BME280;35016;55.674;37.468;2023-09-19T02:10:27;99542.50;;;11.73;77.39
49178;BME280;35016;55.674;37.468;2023-09-19T02:12:54;99538.41;;;11.71;77.88
49178;BME280;35016;55.674;37.468;2023-09-19T02:15:22;99534.59;;;11.67;77.68
49178;BME280;35016;55.674;37.468;2023-09-19T02:17:49;99537.03;;;11.63;77.87
49178;BME280;35016;55.674;37.468;2023-09-19T02:20:17;99535.94;;;11.59;77.75
49178;BME280;35016;55.674;37.468;2023-09-19T02:22:47;99538.34;;;11.56;78.17
49178;BME280;35016;55.674;37.468;2023-09-19T02:25:37;99527.19;;;11.52;78.15
49178;BME280;35016;55.674;37.468;2023-09-19T02:28:06;99529.88;;;11.47;77.87
49178;BME280;35016;55.674;37.468;2023-09-19T02:30:36;99532.59;;;11.47;78.09
49178;BME280;35016;55.674;37.468;2023-09-19T02:33:04;99537.75;;;11.43;78.56
49178;BME280;35016;55.674;37.468;2023-09-19T02:35:32;99541.28;;;11.44;78.44
49178;BME280;35016;55.674;37.468;2023-09-19T02:38:02;99539.66;;;11.43;78.70
49178;BME280;35016;55.674;37.468;2023-09-19T02:40:33;99535.03;;;11.43;78.68
49178;BME280;35016;55.674;37.468;2023-09-19T02:43:03;99531.50;;;11.43;78.65
49178;BME280;35016;55.674;37.468;2023-09-19T02:45:31;99533.13;;;11.44;78.66
49178;BME280;35016;55.674;37.468;2023-09-19T02:48:00;99534.78;;;11.45;78.68
49178;BME280;35016;55.674;37.468;2023-09-19T02:50:30;99529.34;;;11.45;78.88
49178;BME280;35016;55.674;37.468;2023-09-19T02:52:57;99534.50;;;11.46;78.73
49178;BME280;35016;55.674;37.468;2023-09-19T02:55:24;99530.72;;;11.47;78.92
49178;BME280;35016;55.674;37.468;2023-09-19T02:57:53;99531.00;;;11.51;79.47
49178;BME280;35016;55.674;37.468;2023-09-19T03:00:24;99527.75;;;11.54;79.30
49178;BME280;35016;55.674;37.468;2023-09-19T03:02:54;99537.03;;;11.58;79.36
49178;BME280;35016;55.674;37.468;2023-09-19T03:05:23;99527.25;;;11.62;79.48
49178;BME280;35016;55.674;37.468;2023-09-19T03:07:52;99528.63;;;11.65;79.45
49178;BME280;35016;55.674;37.468;2023-09-19T03:10:20;99533.53;;;11.68;79.39
49178;BME280;35016;55.674;37.468;2023-09-19T03:12:49;99530.28;;;11.71;79.67
49178;BME280;35016;55.674;37.468;2023-09-19T03:15:17;99529.75;;;11.74;79.55
49178;BME280;35016;55.674;37.468;2023-09-19T03:17:48;99529.19;;;11.77;79.75
49178;BME280;35016;55.674;37.468;2023-09-19T03:20:20;99528.69;;;11.80;79.88
49178;BME280;35016;55.674;37.468;2023-09-19T03:22:50;99529.78;;;11.84;79.35
49178;BME280;35016;55.674;37.468;2023-09-19T03:25:18;99523.84;;;11.87;79.43
49178;BME280;35016;55.674;37.468;2023-09-19T03:27:52;99530.13;;;11.93;79.14
49178;BME280;35016;55.674;37.468;2023-09-19T03:30:21;99533.13;;;11.96;79.12
49178;BME280;35016;55.674;37.468;2023-09-19T03:32:49;99522.50;;;12.00;79.13
49178;BME280;35016;55.674;37.468;2023-09-19T03:35:18;99525.50;;;12.03;79.07
49178;BME280;35016;55.674;37.468;2023-09-19T03:37:46;99523.34;;;12.05;79.06
49178;BME280;35016;55.674;37.468;2023-09-19T03:40:14;99527.16;;;12.09;79.38
49178;BME280;35016;55.674;37.468;2023-09-19T03:42:43;99532.31;;;12.11;78.78
49178;BME280;35016;55.674;37.468;2023-09-19T03:45:12;99522.81;;;12.14;78.65
49178;BME280;35016;55.674;37.468;2023-09-19T03:47:45;99525.28;;;12.15;78.91
49178;BME280;35016;55.674;37.468;2023-09-19T03:50:18;99519.56;;;12.17;78.74
49178;BME280;35016;55.674;37.468;2023-09-19T03:52:45;99526.38;;;12.19;78.59
49178;BME280;35016;55.674;37.468;2023-09-19T03:55:13;99521.47;;;12.21;78.26
49178;BME280;35016;55.674;37.468;2023-09-19T03:57:40;99526.66;;;12.23;78.41
49178;BME280;35016;55.674;37.468;2023-09-19T04:00:09;99520.94;;;12.24;78.28
49178;BME280;35016;55.674;37.468;2023-09-19T04:02:41;99523.94;;;12.28;78.22
49178;BME280;35016;55.674;37.468;2023-09-19T04:05:10;99529.66;;;12.31;78.07
49178;BME280;35016;55.674;37.468;2023-09-19T04:07:37;99522.84;;;12.34;78.20
49178;BME280;35016;55.674;37.468;2023-09-19T04:10:05;99529.66;;;12.36;77.88
49178;BME280;35016;55.674;37.468;2023-09-19T04:12:35;99522.56;;;12.35;77.81
49178;BME280;35016;55.674;37.468;2023-09-19T04:15:03;99522.56;;;12.40;77.77
49178;BME280;35016;55.674;37.468;2023-09-19T04:17:31;99515.53;;;12.45;77.84
49178;BME280;35016;55.674;37.468;2023-09-19T04:20:00;99517.44;;;12.49;77.72
49178;BME280;35016;55.674;37.468;2023-09-19T04:22:29;99505.47;;;12.50;77.63
49178;BME280;35016;55.674;37.468;2023-09-19T04:24:56;99507.09;;;12.56;77.27
49178;BME280;35016;55.674;37.468;2023-09-19T04:27:24;99500.56;;;12.57;77.35
49178;BME280;35016;55.674;37.468;2023-09-19T04:29:51;99493.75;;;12.60;77.38
49178;BME280;35016;55.674;37.468;2023-09-19T04:32:20;99490.75;;;12.61;76.91
49178;BME280;35016;55.674;37.468;2023-09-19T04:34:48;99495.38;;;12.66;76.97
49178;BME280;35016;55.674;37.468;2023-09-19T04:37:22;99489.66;;;12.67;76.41
49178;BME280;35016;55.674;37.468;2023-09-19T04:39:49;99497.31;;;12.76;76.55
49178;BME280;35016;55.674;37.468;2023-09-19T04:42:16;99495.38;;;12.81;76.30
49178;BME280;35016;55.674;37.468;2023-09-19T04:44:45;99492.66;;;12.86;76.54
49178;BME280;35016;55.674;37.468;2023-09-19T04:47:12;99494.53;;;12.91;76.12
49178;BME280;35016;55.674;37.468;2023-09-19T04:49:39;99497.78;;;12.98;75.79
49178;BME280;35016;55.674;37.468;2023-09-19T04:52:07;99490.75;;;13.02;76.17
49178;BME280;35016;55.674;37.468;2023-09-19T04:54:34;99501.34;;;13.09;76.04
49178;BME280;35016;55.674;37.468;2023-09-19T04:57:01;99494.50;;;13.11;75.39
49178;BME280;35016;55.674;37.468;2023-09-19T04:59:28;99495.06;;;13.18;75.44
49178;BME280;35016;55.674;37.468;2023-09-19T05:01:55;99494.78;;;13.25;75.35
49178;BME280;35016;55.674;37.468;2023-09-19T05:04:23;99491.22;;;13.29;75.12
49178;BME280;35016;55.674;37.468;2023-09-19T05:06:50;99486.59;;;13.35;74.60
49178;BME280;35016;55.674;37.468;2023-09-19T05:09:17;99489.84;;;13.37;74.73
49178;BME280;35016;55.674;37.468;2023-09-19T05:11:47;99481.41;;;13.39;74.44
49178;BME280;35016;55.674;37.468;2023-09-19T05:14:14;99477.03;;;13.38;74.37
49178;BME280;35016;55.674;37.468;2023-09-19T05:16:41;99478.41;;;13.35;74.14
49178;BME280;35016;55.674;37.468;2023-09-19T05:19:08;99473.53;;;13.32;74.04
49178;BME280;35016;55.674;37.468;2023-09-19T05:21:38;99476.53;;;13.30;73.90
49178;BME280;35016;55.674;37.468;2023-09-19T05:24:06;99469.41;;;13.29;73.63
49178;BME280;35016;55.674;37.468;2023-09-19T05:26:37;99475.16;;;13.33;73.56
49178;BME280;35016;55.674;37.468;2023-09-19T05:29:04;99478.13;;;13.37;73.66
49178;BME280;35016;55.674;37.468;2023-09-19T05:31:32;99480.59;;;13.38;73.43
49178;BME280;35016;55.674;37.468;2023-09-19T05:33:59;99477.56;;;13.45;73.35
49178;BME280;35016;55.674;37.468;2023-09-19T05:36:28;99469.88;;;13.52;72.91
49178;BME280;35016;55.674;37.468;2023-09-19T05:38:56;99469.84;;;13.62;73.03
49178;BME280;35016;55.674;37.468;2023-09-19T05:41:24;99463.53;;;13.72;72.91
49178;BME280;35016;55.674;37.468;2023-09-19T05:43:51;99471.09;;;13.80;72.63
49178;BME280;35016;55.674;37.468;2023-09-19T05:46:18;99462.38;;;13.88;72.39
49178;BME280;35016;55.674;37.468;2023-09-19T05:48:46;99468.56;;;13.99;72.28
49178;BME280;35016;55.674;37.468;2023-09-19T05:51:14;99461.69;;;14.06;72.01
49178;BME280;35016;55.674;37.468;2023-09-19T05:53:42;99462.47;;;14.12;71.82
49178;BME280;35016;55.674;37.468;2023-09-19T05:56:10;99467.63;;;14.18;71.69
49178;BME280;35016;55.674;37.468;2023-09-19T05:58:38;99467.00;;;14.26;71.49
49178;BME280;35016;55.674;37.468;2023-09-19T06:01:05;99465.56;;;14.34;71.28
49178;BME280;35016;55.674;37.468;2023-09-19T06:03:34;99460.88;;;14.40;71.47
49178;BME280;35016;55.674;37.468;2023-09-19T06:06:02;99464.13;;;14.42;70.92
49178;BME280;35016;55.674;37.468;2023-09-19T06:08:29;99459.50;;;14.47;70.67
49178;BME280;35016;55.674;37.468;2023-09-19T06:10:58;99465.44;;;14.54;71.02
49178;BME280;35016;55.674;37.468;2023-09-19T06:13:29;99458.59;;;14.57;70.62
49178;BME280;35016;55.674;37.468;2023-09-19T06:15:56;99463.13;;;14.67;70.60
49178;BME280;35016;55.674;37.468;2023-09-19T06:18:25;99458.72;;;14.71;70.70
49178;BME280;35016;55.674;37.468;2023-09-19T06:20:53;99450.78;;;14.74;70.29
49178;BME280;35016;55.674;37.468;2023-09-19T06:23:20;99459.22;;;14.78;70.39
49178;BME280;35016;55.674;37.468;2023-09-19T06:25:47;99461.91;;;14.83;70.11
49178;BME280;35016;55.674;37.468;2023-09-19T06:28:15;99449.53;;;14.91;70.33
49178;BME280;35016;55.674;37.468;2023-09-19T06:30:45;99450.22;;;15.01;69.85
49178;BME280;35016;55.674;37.468;2023-09-19T06:33:12;99452.28;;;15.14;70.07
49178;BME280;35016;55.674;37.468;2023-09-19T06:35:42;99471.22;;;15.30;69.87
49178;BME280;35016;55.674;37.468;2023-09-19T06:38:14;99478.16;;;15.46;69.50
49178;BME280;35016;55.674;37.468;2023-09-19T06:40:42;99473.88;;;15.64;69.42
49178;BME280;35016;55.674;37.468;2023-09-19T06:43:10;99480.44;;;15.82;68.96
49178;BME280;35016;55.674;37.468;2023-09-19T06:45:37;99460.06;;;15.93;69.01
49178;BME280;35016;55.674;37.468;2023-09-19T06:48:05;99466.72;;;16.05;68.29
49178;BME280;35016;55.674;37.468;2023-09-19T06:50:32;99465.44;;;16.17;68.28
49178;BME280;35016;55.674;37.468;2023-09-19T06:53:01;99469.97;;;16.26;67.92
49178;BME280;35016;55.674;37.468;2023-09-19T06:55:28;99472.63;;;16.31;67.47
49178;BME280;35016;55.674;37.468;2023-09-19T06:57:59;99466.03;;;16.32;67.45
49178;BME280;35016;55.674;37.468;2023-09-19T07:00:27;99474.44;;;16.36;67.31
49178;BME280;35016;55.674;37.468;2023-09-19T07:05:28;99470.91;;;16.35;66.84
49178;BME280;35016;55.674;37.468;2023-09-19T07:07:56;99465.44;;;16.35;66.73
49178;BME280;35016;55.674;37.468;2023-09-19T07:10:27;99459.66;;;16.37;66.37
49178;BME280;35016;55.674;37.468;2023-09-19T07:12:57;99469.41;;;16.43;66.53
49178;BME280;35016;55.674;37.468;2023-09-19T07:15:26;99452.84;;;16.53;66.17
49178;BME280;35016;55.674;37.468;2023-09-19T07:17:54;99458.38;;;16.67;66.15
49178;BME280;35016;55.674;37.468;2023-09-19T07:20:24;99452.63;;;16.82;65.68
49178;BME280;35016;55.674;37.468;2023-09-19T07:22:55;99454.56;;;16.95;65.59
49178;BME280;35016;55.674;37.468;2023-09-19T07:25:22;99459.56;;;17.07;64.99
49178;BME280;35016;55.674;37.468;2023-09-19T07:27:50;99453.78;;;17.22;64.77
49178;BME280;35016;55.674;37.468;2023-09-19T07:30:18;99462.59;;;17.33;64.78
49178;BME280;35016;55.674;37.468;2023-09-19T07:32:45;99460.78;;;17.42;64.62
49178;BME280;35016;55.674;37.468;2023-09-19T07:35:12;99455.59;;;17.54;64.50
49178;BME280;35016;55.674;37.468;2023-09-19T07:37:39;99461.69;;;17.65;64.25
49178;BME280;35016;55.674;37.468;2023-09-19T07:40:07;99458.25;;;17.73;63.70
49178;BME280;35016;55.674;37.468;2023-09-19T07:42:36;99452.66;;;17.78;63.52
49178;BME280;35016;55.674;37.468;2023-09-19T07:45:07;99453.03;;;17.85;63.55
49178;BME280;35016;55.674;37.468;2023-09-19T07:47:34;99458.09;;;17.92;63.32
49178;BME280;35016;55.674;37.468;2023-09-19T07:50:03;99443.47;;;17.97;63.04
49178;BME280;35016;55.674;37.468;2023-09-19T07:52:31;99443.66;;;18.00;62.83
49178;BME280;35016;55.674;37.468;2023-09-19T07:55:00;99444.41;;;18.14;62.64
49178;BME280;35016;55.674;37.468;2023-09-19T07:57:33;99432.75;;;18.31;62.42
49178;BME280;35016;55.674;37.468;2023-09-19T08:00:02;99427.50;;;18.43;62.02
49178;BME280;35016;55.674;37.468;2023-09-19T08:02:38;99422.03;;;18.66;61.76
49178;BME280;35016;55.674;37.468;2023-09-19T08:05:07;99420.81;;;18.80;61.38
49178;BME280;35016;55.674;37.468;2023-09-19T08:07:39;99411.34;;;18.95;60.96
49178;BME280;35016;55.674;37.468;2023-09-19T08:10:08;99420.31;;;19.09;60.57
49178;BME280;35016;55.674;37.468;2023-09-19T08:12:35;99421.50;;;19.34;60.38
49178;BME280;35016;55.674;37.468;2023-09-19T08:15:03;99425.00;;;19.57;59.71
49178;BME280;35016;55.674;37.468;2023-09-19T08:17:34;99431.34;;;19.84;58.76
49178;BME280;35016;55.674;37.468;2023-09-19T08:20:02;99427.13;;;19.95;58.76
49178;BME280;35016;55.674;37.468;2023-09-19T08:22:32;99417.94;;;20.08;58.47
49178;BME280;35016;55.674;37.468;2023-09-19T08:24:59;99418.72;;;20.17;58.07
49178;BME280;35016;55.674;37.468;2023-09-19T08:27:31;99416.44;;;20.19;57.98
49178;BME280;35016;55.674;37.468;2023-09-19T08:29:58;99411.75;;;20.20;57.75
49178;BME280;35016;55.674;37.468;2023-09-19T08:32:25;99407.38;;;20.19;57.50
49178;BME280;35016;55.674;37.468;2023-09-19T08:34:54;99407.72;;;20.08;57.54
49178;BME280;35016;55.674;37.468;2023-09-19T08:37:21;99394.94;;;19.95;57.62
49178;BME280;35016;55.674;37.468;2023-09-19T08:39:48;99399.94;;;19.85;57.86
49178;BME280;35016;55.674;37.468;2023-09-19T08:42:17;99395.25;;;19.76;57.76
49178;BME280;35016;55.674;37.468;2023-09-19T08:44:47;99396.53;;;19.70;58.02
49178;BME280;35016;55.674;37.468;2023-09-19T08:47:29;99392.66;;;19.71;57.35
49178;BME280;35016;55.674;37.468;2023-09-19T08:50:14;99383.72;;;19.66;57.87
49178;BME280;35016;55.674;37.468;2023-09-19T08:52:46;99384.69;;;19.61;57.77
49178;BME280;35016;55.674;37.468;2023-09-19T08:55:18;99384.84;;;19.56;58.07
49178;BME280;35016;55.674;37.468;2023-09-19T08:57:52;99385.81;;;19.52;57.90
49178;BME280;35016;55.674;37.468;2023-09-19T09:00:22;99388.53;;;19.43;58.25
49178;BME280;35016;55.674;37.468;2023-09-19T09:02:49;99379.63;;;19.37;58.34
49178;BME280;35016;55.674;37.468;2023-09-19T09:05:18;99383.00;;;19.34;58.42
49178;BME280;35016;55.674;37.468;2023-09-19T09:07:50;99380.56;;;19.33;58.23
49178;BME280;35016;55.674;37.468;2023-09-19T09:10:24;99389.78;;;19.37;58.40
49178;BME280;35016;55.674;37.468;2023-09-19T09:12:52;99387.91;;;19.46;58.22
49178;BME280;35016;55.674;37.468;2023-09-19T09:15:23;99391.97;;;19.57;58.21
49178;BME280;35016;55.674;37.468;2023-09-19T09:17:51;99392.19;;;19.69;57.95
49178;BME280;35016;55.674;37.468;2023-09-19T09:20:22;99382.94;;;19.83;57.80
49178;BME280;35016;55.674;37.468;2023-09-19T09:22:54;99386.69;;;20.04;57.19
49178;BME280;35016;55.674;37.468;2023-09-19T09:25:22;99386.03;;;20.24;57.28
49178;BME280;35016;55.674;37.468;2023-09-19T09:28:01;99380.94;;;20.52;56.35
49178;BME280;35016;55.674;37.468;2023-09-19T09:30:33;99379.72;;;20.79;55.78
49178;BME280;35016;55.674;37.468;2023-09-19T09:33:11;99381.56;;;21.13;55.17
49178;BME280;35016;55.674;37.468;2023-09-19T09:36:00;99377.47;;;21.49;54.38
49178;BME280;35016;55.674;37.468;2023-09-19T09:38:45;99377.44;;;21.78;54.06
49178;BME280;35016;55.674;37.468;2023-09-19T09:41:15;99370.13;;;21.94;54.06
49178;BME280;35016;55.674;37.468;2023-09-19T09:43:54;99372.09;;;22.15;53.84
49178;BME280;35016;55.674;37.468;2023-09-19T09:46:21;99358.59;;;22.34;53.24
49178;BME280;35016;55.674;37.468;2023-09-19T09:48:58;99360.47;;;22.54;52.30
49178;BME280;35016;55.674;37.468;2023-09-19T09:51:51;99355.31;;;22.65;52.66
49178;BME280;35016;55.674;37.468;2023-09-19T09:54:29;99360.97;;;22.69;52.31
49178;BME280;35016;55.674;37.468;2023-09-19T09:57:07;99363.56;;;22.53;52.31
49178;BME280;35016;55.674;37.468;2023-09-19T09:59:47;99358.59;;;22.34;51.83
49178;BME280;35016;55.674;37.468;2023-09-19T10:02:18;99369.56;;;22.10;52.59
49178;BME280;35016;55.674;37.468;2023-09-19T10:04:52;99363.41;;;21.83;52.73
49178;BME280;35016;55.674;37.468;2023-09-19T10:07:40;99355.34;;;21.57;53.30
49178;BME280;35016;55.674;37.468;2023-09-19T10:10:11;99353.53;;;21.41;53.56
49178;BME280;35016;55.674;37.468;2023-09-19T10:12:47;99347.19;;;21.40;53.71
49178;BME280;35016;55.674;37.468;2023-09-19T10:15:17;99351.16;;;21.51;53.51
49178;BME280;35016;55.674;37.468;2023-09-19T10:17:47;99347.31;;;21.64;53.35
49178;BME280;35016;55.674;37.468;2023-09-19T10:20:16;99336.16;;;21.82;52.95
49178;BME280;35016;55.674;37.468;2023-09-19T10:23:03;99333.09;;;21.95;53.10
49178;BME280;35016;55.674;37.468;2023-09-19T10:25:30;99335.00;;;22.04;52.70
49178;BME280;35016;55.674;37.468;2023-09-19T10:28:00;99328.47;;;22.08;52.56
49178;BME280;35016;55.674;37.468;2023-09-19T10:30:37;99315.25;;;22.14;52.68
49178;BME280;35016;55.674;37.468;2023-09-19T10:33:06;99312.13;;;22.15;52.54
49178;BME280;35016;55.674;37.468;2023-09-19T10:35:34;99325.25;;;22.18;52.60
49178;BME280;35016;55.674;37.468;2023-09-19T10:38:09;99312.03;;;22.24;52.33
49178;BME280;35016;55.674;37.468;2023-09-19T10:40:38;99316.69;;;22.32;52.44
49178;BME280;35016;55.674;37.468;2023-09-19T10:43:16;99315.19;;;22.35;52.08
49178;BME280;35016;55.674;37.468;2023-09-19T10:45:46;99312.09;;;22.36;52.27
49178;BME280;35016;55.674;37.468;2023-09-19T10:48:16;99303.34;;;22.34;52.29
49178;BME280;35016;55.674;37.468;2023-09-19T10:56:09;99302.31;;;22.39;52.08
49178;BME280;35016;55.674;37.468;2023-09-19T10:58:44;99295.50;;;22.36;52.25
49178;BME280;35016;55.674;37.468;2023-09-19T11:01:12;99302.75;;;22.41;52.08
49178;BME280;35016;55.674;37.468;2023-09-19T11:03:41;99309.22;;;22.45;52.26
49178;BME280;35016;55.674;37.468;2023-09-19T11:06:13;99301.84;;;22.49;52.17
49178;BME280;35016;55.674;37.468;2023-09-19T11:09:01;99297.50;;;22.60;52.23
49178;BME280;35016;55.674;37.468;2023-09-19T11:11:46;99297.28;;;22.65;52.12
49178;BME280;35016;55.674;37.468;2023-09-19T11:25:45;99287.50;;;23.04;51.44
49178;BME280;35016;55.674;37.468;2023-09-19T11:30:45;99287.72;;;23.11;51.73
49178;BME280;35016;55.674;37.468;2023-09-19T11:36:11;99280.19;;;23.36;50.81
49178;BME280;35016;55.674;37.468;2023-09-19T11:41:36;99270.94;;;23.57;50.51
49178;BME280;35016;55.674;37.468;2023-09-19T11:46:54;99270.22;;;23.60;50.46
49178;BME280;35016;55.674;37.468;2023-09-19T11:49:28;99271.38;;;23.59;50.34
49178;BME280;35016;55.674;37.468;2023-09-19T11:52:01;99267.00;;;23.58;50.65
49178;BME280;35016;55.674;37.468;2023-09-19T11:54:32;99266.56;;;23.56;50.53
49178;BME280;35016;55.674;37.468;2023-09-19T11:57:00;99258.13;;;23.52;50.84
49178;BME280;35016;55.674;37.468;2023-09-19T11:59:31;99258.56;;;23.54;50.69
49178;BME280;35016;55.674;37.468;2023-09-19T12:02:07;99259.16;;;23.60;50.45
49178;BME280;35016;55.674;37.468;2023-09-19T12:04:42;99253.34;;;23.65;50.81
49178;BME280;35016;55.674;37.468;2023-09-19T12:07:12;99251.00;;;23.79;50.43
49178;BME280;35016;55.674;37.468;2023-09-19T12:09:47;99244.63;;;24.06;50.55
49178;BME280;35016;55.674;37.468;2023-09-19T12:12:23;99248.88;;;24.32;49.31
49178;BME280;35016;55.674;37.468;2023-09-19T12:14:55;99245.31;;;24.63;49.42
49178;BME280;35016;55.674;37.468;2023-09-19T12:20:03;99240.19;;;25.70;48.71
49178;BME280;35016;55.674;37.468;2023-09-19T12:22:41;99226.97;;;26.29;47.92
49178;BME280;35016;55.674;37.468;2023-09-19T12:25:10;99222.72;;;26.84;47.19
49178;BME280;35016;55.674;37.468;2023-09-19T12:27:46;99229.56;;;27.46;45.07
49178;BME280;35016;55.674;37.468;2023-09-19T12:30:30;99229.16;;;28.12;44.15
49178;BME280;35016;55.674;37.468;2023-09-19T12:33:00;99213.31;;;28.63;44.30
49178;BME280;35016;55.674;37.468;2023-09-19T12:35:33;99216.41;;;29.06;43.45
49178;BME280;35016;55.674;37.468;2023-09-19T12:38:06;99217.47;;;29.49;42.60
49178;BME280;35016;55.674;37.468;2023-09-19T12:40:34;99218.75;;;29.84;41.73
49178;BME280;35016;55.674;37.468;2023-09-19T12:43:06;99213.66;;;30.21;40.09
49178;BME280;35016;55.674;37.468;2023-09-19T12:45:34;99212.06;;;30.52;39.80
49178;BME280;35016;55.674;37.468;2023-09-19T12:48:21;99207.28;;;30.64;38.64
49178;BME280;35016;55.674;37.468;2023-09-19T12:51:09;99211.69;;;30.75;38.23
49178;BME280;35016;55.674;37.468;2023-09-19T12:53:41;99207.63;;;31.01;38.17
49178;BME280;35016;55.674;37.468;2023-09-19T12:56:13;99208.34;;;31.37;37.43
49178;BME280;35016;55.674;37.468;2023-09-19T13:01:17;99201.47;;;31.56;36.38
49178;BME280;35016;55.674;37.468;2023-09-19T13:03:44;99203.84;;;31.58;35.76
49178;BME280;35016;55.674;37.468;2023-09-19T13:06:13;99201.47;;;31.56;35.98
49178;BME280;35016;55.674;37.468;2023-09-19T13:08:43;99207.41;;;31.69;35.61
49178;BME280;35016;55.674;37.468;2023-09-19T13:11:17;99202.84;;;31.96;35.31
49178;BME280;35016;55.674;37.468;2023-09-19T13:13:51;99188.63;;;32.25;34.55
49178;BME280;35016;55.674;37.468;2023-09-19T13:16:22;99188.44;;;32.50;34.03
49178;BME280;35016;55.674;37.468;2023-09-19T13:18:53;99191.94;;;32.61;34.00
49178;BME280;35016;55.674;37.468;2023-09-19T13:21:32;99188.25;;;32.71;33.26
49178;BME280;35016;55.674;37.468;2023-09-19T13:24:22;99190.59;;;32.76;32.82
49178;BME280;35016;55.674;37.468;2023-09-19T13:26:53;99190.69;;;32.69;33.19
49178;BME280;35016;55.674;37.468;2023-09-19T13:29:23;99180.59;;;32.75;33.28
49178;BME280;35016;55.674;37.468;2023-09-19T13:31:51;99183.22;;;32.93;32.63
49178;BME280;35016;55.674;37.468;2023-09-19T13:34:21;99184.00;;;32.97;32.41
49178;BME280;35016;55.674;37.468;2023-09-19T13:36:48;99173.78;;;32.73;32.27
49178;BME280;35016;55.674;37.468;2023-09-19T13:39:16;99178.84;;;32.47;32.67
49178;BME280;35016;55.674;37.468;2023-09-19T13:41:47;99176.53;;;32.35;32.51
49178;BME280;35016;55.674;37.468;2023-09-19T13:44:15;99168.59;;;32.23;32.88
49178;BME280;35016;55.674;37.468;2023-09-19T13:46:44;99167.50;;;32.06;32.97
49178;BME280;35016;55.674;37.468;2023-09-19T13:49:14;99174.97;;;31.71;33.33
49178;BME280;35016;55.674;37.468;2023-09-19T13:51:41;99165.84;;;31.46;33.60
49178;BME280;35016;55.674;37.468;2023-09-19T13:54:11;99164.75;;;31.15;33.96
49178;BME280;35016;55.674;37.468;2023-09-19T13:56:39;99162.91;;;30.44;34.68
49178;BME280;35016;55.674;37.468;2023-09-19T13:59:07;99171.56;;;29.61;35.67
49178;BME280;35016;55.674;37.468;2023-09-19T14:01:37;99171.06;;;29.38;36.01
49178;BME280;35016;55.674;37.468;2023-09-19T14:04:05;99166.25;;;29.31;36.06
49178;BME280;35016;55.674;37.468;2023-09-19T14:06:32;99163.31;;;29.03;36.66
49178;BME280;35016;55.674;37.468;2023-09-19T14:09:00;99160.59;;;28.51;37.18
49178;BME280;35016;55.674;37.468;2023-09-19T14:11:28;99158.91;;;27.95;37.80